Time;durP1;ratioP1;P1;durP2;ratioP2;P2;SDS_P1;SDS_P2;PMS_P1;PMS_P2;Temp;Humidity;BMP_temperature;BMP_pressure;BME280_temperature;BME280_humidity;BME280_pressure;Samples;Min_cycle;Max_cycle;Signal;HPM_P1;HPM_P2
2023/04/17 00:02:01;;;;;;;;;;;14.90;84.10;;;;;;5049452;28;19924;-74
2023/04/17 00:04:27;;;;;;;;;;;15.00;84.10;;;;;;5049493;28;19916;-74
2023/04/17 00:06:53;;;;;;;;;;;15.00;84.20;;;;;;5049192;28;20285;-74
2023/04/17 00:09:18;;;;;;;;;;;15.10;84.20;;;;;;5049437;28;19920;-74
2023/04/17 00:11:44;;;;;;;;;;;15.10;84.30;;;;;;5031399;28;20357;-74
2023/04/17 00:14:09;;;;;;;;;;;15.10;84.20;;;;;;5048458;28;19913;-74
2023/04/17 00:16:35;;;;;;;;;;;15.10;84.20;;;;;;5049067;28;19912;-74
2023/04/17 00:19:00;;;;;;;;;;;15.20;84.20;;;;;;5014626;28;19913;-74
2023/04/17 00:21:28;;;;;;;;;;;15.20;84.20;;;;;;5049041;28;20329;-74
2023/04/17 00:23:54;;;;;;;;;;;15.20;84.70;;;;;;5030985;28;20057;-74
2023/04/17 00:26:20;;;;;;;;;;;15.20;84.10;;;;;;5048996;28;20007;-74
2023/04/17 00:28:49;;;;;;;;;;;15.20;84.10;;;;;;5031077;28;19975;-74
2023/04/17 00:31:15;;;;;;;;;;;15.20;84.10;;;;;;5048936;28;19920;-74
2023/04/17 00:33:40;;;;;;;;;;;15.20;84.10;;;;;;5048610;28;19925;-74
2023/04/17 00:36:06;;;;;;;;;;;15.10;84.10;;;;;;5048708;28;20163;-74
2023/04/17 00:38:32;;;;;;;;;;;15.10;84.10;;;;;;5048629;28;19927;-74
2023/04/17 00:40:57;;;;;;;;;;;15.10;84.20;;;;;;5048605;28;19913;-74
2023/04/17 00:43:23;;;;;;;;;;;15.00;84.20;;;;;;5048679;28;19920;-74
2023/04/17 00:45:49;;;;;;;;;;;15.00;84.20;;;;;;5048559;28;20262;-74
2023/04/17 00:48:15;;;;;;;;;;;15.00;84.20;;;;;;5048492;28;19999;-74
2023/04/17 00:50:41;;;;;;;;;;;15.00;84.20;;;;;;5048933;28;19921;-74
2023/04/17 00:53:06;;;;;;;;;;;14.90;84.20;;;;;;5048427;28;19920;-74
2023/04/17 00:55:33;;;;;;;;;;;14.90;84.20;;;;;;5048359;28;19920;-74
2023/04/17 00:57:59;;;;;;;;;;;14.80;84.20;;;;;;5048251;28;19920;-74
2023/04/17 01:00:25;;;;;;;;;;;14.80;84.30;;;;;;5048341;28;19909;-74
2023/04/17 01:02:51;;;;;;;;;;;14.70;84.30;;;;;;5048232;28;19966;-74
2023/04/17 01:05:16;;;;;;;;;;;14.70;84.30;;;;;;5030261;28;20300;-74
2023/04/17 01:07:42;;;;;;;;;;;14.70;84.30;;;;;;5030294;28;19913;-74
2023/04/17 01:10:08;;;;;;;;;;;14.70;84.30;;;;;;5048060;28;20413;-74
2023/04/17 01:12:34;;;;;;;;;;;14.70;84.30;;;;;;5048137;28;19947;-74
2023/04/17 01:15:00;;;;;;;;;;;14.70;84.30;;;;;;5030349;28;20387;-74
2023/04/17 01:17:26;;;;;;;;;;;14.70;84.30;;;;;;5047971;28;19924;-74
2023/04/17 01:19:52;;;;;;;;;;;14.70;84.30;;;;;;5048049;28;19912;-74
2023/04/17 01:22:20;;;;;;;;;;;14.70;84.30;;;;;;5047941;28;19908;-74
2023/04/17 01:24:46;;;;;;;;;;;14.70;84.30;;;;;;5030049;28;19983;-74
2023/04/17 01:27:12;;;;;;;;;;;14.70;84.30;;;;;;5047867;28;19912;-74
2023/04/17 01:29:38;;;;;;;;;;;14.70;84.30;;;;;;5047817;28;20279;-73
2023/04/17 01:32:04;;;;;;;;;;;14.60;84.20;;;;;;5029780;28;19921;-73
2023/04/17 01:34:30;;;;;;;;;;;14.60;84.20;;;;;;5047781;28;19912;-73
2023/04/17 01:36:55;;;;;;;;;;;14.60;84.30;;;;;;5047766;28;20312;-74
2023/04/17 01:39:21;;;;;;;;;;;14.60;84.20;;;;;;5047759;28;19956;-74
2023/04/17 01:41:46;;;;;;;;;;;14.60;84.20;;;;;;5047782;28;19919;-73
2023/04/17 01:44:12;;;;;;;;;;;14.70;84.30;;;;;;5047771;28;20431;-74
2023/04/17 01:46:38;;;;;;;;;;;14.70;84.20;;;;;;5029864;28;19913;-74
2023/04/17 01:49:03;;;;;;;;;;;14.70;84.20;;;;;;5029596;28;19913;-74
2023/04/17 01:51:30;;;;;;;;;;;14.60;84.20;;;;;;5047933;28;19920;-73
2023/04/17 01:53:55;;;;;;;;;;;14.60;84.20;;;;;;5047696;28;19999;-73
2023/04/17 01:56:21;;;;;;;;;;;14.60;84.20;;;;;;5047652;28;20008;-73
2023/04/17 01:58:47;;;;;;;;;;;14.60;84.20;;;;;;5047515;28;20369;-74
2023/04/17 02:01:12;;;;;;;;;;;14.60;84.30;;;;;;5047569;28;19958;-73
2023/04/17 02:03:38;;;;;;;;;;;14.60;84.30;;;;;;5029550;28;20193;-73
2023/04/17 02:06:04;;;;;;;;;;;14.60;84.20;;;;;;5047534;28;19936;-73
2023/04/17 02:08:29;;;;;;;;;;;14.60;84.30;;;;;;5047332;28;19913;-73
2023/04/17 02:10:55;;;;;;;;;;;14.60;84.20;;;;;;5047334;28;20187;-74
2023/04/17 02:13:20;;;;;;;;;;;14.70;84.30;;;;;;5047470;28;19916;-73
2023/04/17 02:15:46;;;;;;;;;;;14.60;84.20;;;;;;5047441;28;20352;-73
2023/04/17 02:18:11;;;;;;;;;;;14.60;84.20;;;;;;5047286;28;19944;-73
2023/04/17 02:20:37;;;;;;;;;;;14.60;84.20;;;;;;5047352;28;19969;-73
2023/04/17 02:23:03;;;;;;;;;;;14.60;84.30;;;;;;5047352;28;20337;-73
2023/04/17 02:25:29;;;;;;;;;;;14.60;84.30;;;;;;5047488;28;20013;-73
2023/04/17 02:27:55;;;;;;;;;;;14.60;84.30;;;;;;5047236;28;19953;-73
2023/04/17 02:30:25;;;;;;;;;;;14.60;84.20;;;;;;5047180;28;19913;-73
2023/04/17 02:32:51;;;;;;;;;;;14.60;84.20;;;;;;5047076;28;19925;-73
2023/04/17 02:35:20;;;;;;;;;;;14.60;84.20;;;;;;5047247;28;20435;-73
2023/04/17 02:37:46;;;;;;;;;;;14.60;84.20;;;;;;5050532;28;20343;-73
2023/04/17 02:40:11;;;;;;;;;;;14.60;84.20;;;;;;5050982;28;19912;-74
2023/04/17 02:42:37;;;;;;;;;;;14.60;84.30;;;;;;5051113;28;19913;-73
2023/04/17 02:45:03;;;;;;;;;;;14.60;84.20;;;;;;5050984;28;19967;-73
2023/04/17 02:47:29;;;;;;;;;;;14.60;84.20;;;;;;5050740;28;19959;-73
2023/04/17 02:49:55;;;;;;;;;;;14.60;84.30;;;;;;5050608;28;19914;-74
2023/04/17 02:52:21;;;;;;;;;;;14.60;84.20;;;;;;5032715;28;20258;-74
2023/04/17 02:54:46;;;;;;;;;;;14.60;84.20;;;;;;5050678;28;19917;-73
2023/04/17 02:57:12;;;;;;;;;;;14.60;84.20;;;;;;5050563;28;19920;-73
2023/04/17 02:59:38;;;;;;;;;;;14.60;84.20;;;;;;5050636;28;19915;-73
2023/04/17 03:02:04;;;;;;;;;;;14.60;84.20;;;;;;5051003;28;19941;-73
2023/04/17 03:04:29;;;;;;;;;;;14.60;84.30;;;;;;5050564;28;19913;-73
2023/04/17 03:06:55;;;;;;;;;;;14.60;84.30;;;;;;5050551;28;20282;-74
2023/04/17 03:09:21;;;;;;;;;;;14.50;84.30;;;;;;5032572;28;20146;-73
2023/04/17 03:11:47;;;;;;;;;;;14.50;84.50;;;;;;5050460;28;20319;-73
2023/04/17 03:14:13;;;;;;;;;;;14.40;84.60;;;;;;5050382;28;19920;-74
2023/04/17 03:16:38;;;;;;;;;;;14.40;84.50;;;;;;5050340;28;19913;-73
2023/04/17 03:19:04;;;;;;;;;;;14.40;84.60;;;;;;5050173;28;19909;-73
2023/04/17 03:21:30;;;;;;;;;;;14.30;84.60;;;;;;5032414;28;20376;-73
2023/04/17 03:23:55;;;;;;;;;;;14.30;84.60;;;;;;5050125;28;19920;-73
2023/04/17 03:26:21;;;;;;;;;;;14.30;84.70;;;;;;5015977;28;20310;-73
2023/04/17 03:28:47;;;;;;;;;;;14.40;84.70;;;;;;5032120;28;20272;-73
2023/04/17 03:31:12;;;;;;;;;;;14.40;84.60;;;;;;5049971;28;20403;-74
2023/04/17 03:33:38;;;;;;;;;;;14.40;84.60;;;;;;5049854;28;20082;-73
2023/04/17 03:36:04;;;;;;;;;;;14.50;85.00;;;;;;5050066;28;19913;-74
2023/04/17 03:38:30;;;;;;;;;;;14.50;84.40;;;;;;5050172;28;19919;-74
2023/04/17 03:40:56;;;;;;;;;;;14.50;84.40;;;;;;5049881;28;20377;-73
2023/04/17 03:43:21;;;;;;;;;;;14.50;84.40;;;;;;5049852;28;19924;-74
2023/04/17 03:45:47;;;;;;;;;;;14.50;84.50;;;;;;5031828;28;19909;-73
2023/04/17 03:48:12;;;;;;;;;;;14.50;84.40;;;;;;5048576;28;19920;-73
2023/04/17 03:50:38;;;;;;;;;;;14.40;84.50;;;;;;5049559;28;19924;-73
2023/04/17 03:53:04;;;;;;;;;;;14.40;84.60;;;;;;5049525;28;19909;-73
2023/04/17 03:55:29;;;;;;;;;;;14.40;84.70;;;;;;5049220;28;20281;-73
2023/04/17 03:57:55;;;;;;;;;;;14.50;84.70;;;;;;5031279;28;19913;-73
2023/04/17 04:00:21;;;;;;;;;;;14.50;84.70;;;;;;5049092;28;19932;-73
2023/04/17 04:02:47;;;;;;;;;;;14.40;84.70;;;;;;5049160;28;19917;-73
2023/04/17 04:05:12;;;;;;;;;;;14.40;84.80;;;;;;5049156;28;19913;-73
2023/04/17 04:07:38;;;;;;;;;;;14.40;84.90;;;;;;5049182;28;20270;-73
2023/04/17 04:10:04;;;;;;;;;;;14.40;84.80;;;;;;5049011;28;20365;-73
2023/04/17 04:12:31;;;;;;;;;;;14.40;84.70;;;;;;5048337;28;20296;-73
2023/04/17 04:14:56;;;;;;;;;;;14.40;84.70;;;;;;5049019;28;19927;-74
2023/04/17 04:17:22;;;;;;;;;;;14.40;84.80;;;;;;5048905;28;20540;-73
2023/04/17 04:19:48;;;;;;;;;;;14.40;84.90;;;;;;5048984;28;20296;-74
2023/04/17 04:22:13;;;;;;;;;;;14.30;84.90;;;;;;5049140;28;20003;-74
2023/04/17 04:24:39;;;;;;;;;;;14.40;84.90;;;;;;5048875;28;19913;-73
2023/04/17 04:27:05;;;;;;;;;;;14.40;85.00;;;;;;5048691;28;19913;-73
2023/04/17 04:29:31;;;;;;;;;;;14.30;85.00;;;;;;5048751;28;20186;-74
2023/04/17 04:31:57;;;;;;;;;;;14.30;84.90;;;;;;5048644;28;19927;-74
2023/04/17 04:34:24;;;;;;;;;;;14.30;84.80;;;;;;5030758;28;19924;-73
2023/04/17 04:36:50;;;;;;;;;;;14.30;84.80;;;;;;5031056;28;19967;-73
2023/04/17 04:39:19;;;;;;;;;;;14.30;85.30;;;;;;5048654;28;19954;-73
2023/04/17 04:41:51;;;;;;;;;;;14.30;84.80;;;;;;5048618;28;19955;-73
2023/04/17 04:44:17;;;;;;;;;;;14.20;84.70;;;;;;5048567;28;19996;-74
2023/04/17 04:46:42;;;;;;;;;;;14.10;84.70;;;;;;5030612;28;20015;-74
2023/04/17 04:49:08;;;;;;;;;;;14.10;84.80;;;;;;5048259;28;20074;-74
2023/04/17 04:51:34;;;;;;;;;;;14.10;84.80;;;;;;5048481;28;19920;-74
2023/04/17 04:54:00;;;;;;;;;;;14.10;84.80;;;;;;5048432;28;19989;-74
2023/04/17 04:56:26;;;;;;;;;;;14.10;84.80;;;;;;5048339;28;19924;-74
2023/04/17 04:58:52;;;;;;;;;;;14.10;84.80;;;;;;5047732;28;20361;-74
2023/04/17 05:01:17;;;;;;;;;;;14.10;84.90;;;;;;5048229;28;19909;-74
2023/04/17 05:03:43;;;;;;;;;;;14.10;84.80;;;;;;5048254;28;19935;-74
2023/04/17 05:06:10;;;;;;;;;;;14.00;84.90;;;;;;5048463;28;20000;-74
2023/04/17 05:08:36;;;;;;;;;;;14.00;85.00;;;;;;5048161;28;19959;-74
2023/04/17 05:11:02;;;;;;;;;;;14.00;84.90;;;;;;5048117;28;19917;-74
2023/04/17 05:13:29;;;;;;;;;;;14.10;84.90;;;;;;5048129;28;19913;-74
2023/04/17 05:15:54;;;;;;;;;;;14.10;84.80;;;;;;5048008;28;20273;-74
2023/04/17 05:18:20;;;;;;;;;;;14.10;85.30;;;;;;5047746;28;19913;-74
2023/04/17 05:20:46;;;;;;;;;;;14.10;85.00;;;;;;5048229;28;19943;-74
2023/04/17 05:23:11;;;;;;;;;;;14.10;84.90;;;;;;5048034;28;19919;-74
2023/04/17 05:25:37;;;;;;;;;;;14.10;84.90;;;;;;5048339;28;20285;-74
2023/04/17 05:28:02;;;;;;;;;;;14.10;85.00;;;;;;5047705;28;19955;-74
2023/04/17 05:30:28;;;;;;;;;;;14.10;84.90;;;;;;5029569;28;20011;-74
2023/04/17 05:32:53;;;;;;;;;;;14.20;84.80;;;;;;5047746;28;20038;-74
2023/04/17 05:35:19;;;;;;;;;;;14.10;84.70;;;;;;5047815;28;19908;-74
2023/04/17 05:37:45;;;;;;;;;;;14.20;84.70;;;;;;5029806;28;20274;-74
2023/04/17 05:40:11;;;;;;;;;;;14.20;84.70;;;;;;5047732;28;19955;-74
2023/04/17 05:42:36;;;;;;;;;;;14.20;84.80;;;;;;5047518;28;19917;-74
2023/04/17 05:45:02;;;;;;;;;;;14.20;84.80;;;;;;5029612;28;20430;-74
2023/04/17 05:47:27;;;;;;;;;;;14.20;84.70;;;;;;5047514;28;19908;-74
2023/04/17 05:49:56;;;;;;;;;;;14.20;84.70;;;;;;5047460;28;20391;-74
2023/04/17 05:52:22;;;;;;;;;;;14.30;84.80;;;;;;5047404;28;19966;-74
2023/04/17 05:54:48;;;;;;;;;;;14.30;84.80;;;;;;5047428;28;20011;-75
2023/04/17 05:57:14;;;;;;;;;;;14.30;84.70;;;;;;5047092;28;20385;-74
2023/04/17 05:59:39;;;;;;;;;;;14.30;84.60;;;;;;5046850;28;20386;-74
2023/04/17 06:02:06;;;;;;;;;;;14.30;84.70;;;;;;5047290;28;19996;-74
2023/04/17 06:04:31;;;;;;;;;;;14.30;84.70;;;;;;5048162;28;20250;-74
2023/04/17 06:06:57;;;;;;;;;;;14.40;84.80;;;;;;5047704;28;19923;-74
2023/04/17 06:09:23;;;;;;;;;;;14.40;84.80;;;;;;5029282;28;19916;-74
2023/04/17 06:11:48;;;;;;;;;;;14.40;84.80;;;;;;5014696;28;20518;-74
2023/04/17 06:14:14;;;;;;;;;;;14.40;84.80;;;;;;5051256;28;20004;-74
2023/04/17 06:16:39;;;;;;;;;;;14.40;84.70;;;;;;5051356;28;19955;-74
2023/04/17 06:19:05;;;;;;;;;;;14.40;84.60;;;;;;5032779;28;20305;-74
2023/04/17 06:21:30;;;;;;;;;;;14.40;84.70;;;;;;5051263;28;19927;-74
2023/04/17 06:23:56;;;;;;;;;;;14.40;84.60;;;;;;5051084;28;19959;-74
2023/04/17 06:26:21;;;;;;;;;;;14.40;84.70;;;;;;5051019;28;20347;-74
2023/04/17 06:28:47;;;;;;;;;;;14.40;84.70;;;;;;5050751;28;20324;-74
2023/04/17 06:31:13;;;;;;;;;;;14.50;84.70;;;;;;5050847;28;20003;-74
2023/04/17 06:33:38;;;;;;;;;;;14.50;84.80;;;;;;5050727;28;20163;-74
2023/04/17 06:36:04;;;;;;;;;;;14.50;84.70;;;;;;5051134;28;19913;-74
2023/04/17 06:38:29;;;;;;;;;;;14.60;84.80;;;;;;5050558;28;19923;-74
2023/04/17 06:40:55;;;;;;;;;;;14.60;84.80;;;;;;5050289;28;19952;-74
2023/04/17 06:43:21;;;;;;;;;;;14.60;84.80;;;;;;5050702;28;19920;-70
2023/04/17 06:45:47;;;;;;;;;;;14.60;84.70;;;;;;5050542;28;19920;-71
2023/04/17 06:48:12;;;;;;;;;;;14.70;84.80;;;;;;5050336;28;20385;-71
2023/04/17 06:50:38;;;;;;;;;;;14.70;84.80;;;;;;5032531;28;19939;-71
2023/04/17 06:53:03;;;;;;;;;;;14.70;84.80;;;;;;5032350;28;19936;-71
2023/04/17 06:55:29;;;;;;;;;;;14.70;84.70;;;;;;5050126;28;19917;-71
2023/04/17 06:57:54;;;;;;;;;;;14.70;84.70;;;;;;5050166;28;20023;-71
2023/04/17 07:00:20;;;;;;;;;;;14.80;84.70;;;;;;5031923;28;19912;-71
2023/04/17 07:02:46;;;;;;;;;;;14.80;84.80;;;;;;5050009;28;19927;-70
2023/04/17 07:05:12;;;;;;;;;;;14.80;84.70;;;;;;5050276;28;19913;-71
2023/04/17 07:07:38;;;;;;;;;;;14.80;84.60;;;;;;5049955;28;19958;-71
2023/04/17 07:10:05;;;;;;;;;;;14.80;85.10;;;;;;5031641;28;19943;-71
2023/04/17 07:12:30;;;;;;;;;;;14.80;84.70;;;;;;5050015;28;19959;-71
2023/04/17 07:14:56;;;;;;;;;;;14.80;84.80;;;;;;5032066;28;19917;-71
2023/04/17 07:17:22;;;;;;;;;;;14.90;84.80;;;;;;5050049;28;19920;-71
2023/04/17 07:19:47;;;;;;;;;;;14.90;84.80;;;;;;5050129;28;20331;-71
2023/04/17 07:22:13;;;;;;;;;;;14.90;84.80;;;;;;5049837;28;19916;-71
2023/04/17 07:24:38;;;;;;;;;;;14.90;84.90;;;;;;5050026;28;20284;-71
2023/04/17 07:27:06;;;;;;;;;;;15.00;85.00;;;;;;5031950;28;19924;-71
2023/04/17 07:29:31;;;;;;;;;;;15.00;85.00;;;;;;5049776;28;19913;-71
2023/04/17 07:31:57;;;;;;;;;;;15.10;85.00;;;;;;5031575;28;20035;-71
2023/04/17 07:34:29;;;;;;;;;;;15.20;84.90;;;;;;5049767;28;19909;-71
2023/04/17 07:36:55;;;;;;;;;;;15.30;85.00;;;;;;5049482;28;19916;-71
2023/04/17 07:39:21;;;;;;;;;;;15.30;85.00;;;;;;5031477;28;19913;-70
2023/04/17 07:41:47;;;;;;;;;;;15.50;85.10;;;;;;5049148;28;19955;-71
2023/04/17 07:44:13;;;;;;;;;;;15.60;85.10;;;;;;5049594;28;19948;-71
2023/04/17 07:46:40;;;;;;;;;;;15.70;85.20;;;;;;5049389;28;19975;-71
2023/04/17 07:49:05;;;;;;;;;;;15.90;85.20;;;;;;5049279;28;19928;-70
2023/04/17 07:51:31;;;;;;;;;;;16.00;85.20;;;;;;5049242;28;20381;-70
2023/04/17 07:53:57;;;;;;;;;;;16.20;85.10;;;;;;5048819;28;19917;-70
2023/04/17 07:56:23;;;;;;;;;;;16.30;85.00;;;;;;5048445;28;19913;-70
2023/04/17 07:58:50;;;;;;;;;;;16.50;85.10;;;;;;5048720;28;19924;-70
2023/04/17 08:01:16;;;;;;;;;;;16.60;85.10;;;;;;5030932;28;19927;-70
2023/04/17 08:03:43;;;;;;;;;;;16.90;85.20;;;;;;5049039;28;19913;-70
2023/04/17 08:06:09;;;;;;;;;;;17.10;85.30;;;;;;5049597;28;19912;-70
2023/04/17 08:08:36;;;;;;;;;;;17.30;85.30;;;;;;5031125;28;19912;-70
2023/04/17 08:11:02;;;;;;;;;;;17.40;85.20;;;;;;5049002;28;19947;-70
2023/04/17 08:13:31;;;;;;;;;;;17.60;85.10;;;;;;5048956;28;19951;-70
2023/04/17 08:15:56;;;;;;;;;;;17.70;85.10;;;;;;5031143;28;20396;-70
2023/04/17 08:18:22;;;;;;;;;;;17.90;85.20;;;;;;5031235;28;19912;-70
2023/04/17 08:20:48;;;;;;;;;;;18.00;85.20;;;;;;5049661;28;20020;-69
2023/04/17 08:23:13;;;;;;;;;;;18.00;85.10;;;;;;5049713;28;20434;-69
2023/04/17 08:25:39;;;;;;;;;;;18.10;85.10;;;;;;5049309;28;20286;-70
2023/04/17 08:28:04;;;;;;;;;;;18.20;85.10;;;;;;5049249;28;19917;-70
2023/04/17 08:30:30;;;;;;;;;;;18.30;85.20;;;;;;5045991;28;20445;-70
2023/04/17 08:32:56;;;;;;;;;;;18.50;85.40;;;;;;5020682;28;19936;-69
2023/04/17 08:35:22;;;;;;;;;;;18.70;85.30;;;;;;5020603;28;19932;-69
2023/04/17 08:37:47;;;;;;;;;;;18.80;85.40;;;;;;5019444;28;19935;-69
2023/04/17 08:40:13;;;;;;;;;;;19.00;85.20;;;;;;5034033;28;19920;-69
2023/04/17 08:42:40;;;;;;;;;;;19.10;85.30;;;;;;5029432;28;19987;-69
2023/04/17 08:45:10;;;;;;;;;;;19.30;85.40;;;;;;5028920;28;20274;-70
2023/04/17 08:47:39;;;;;;;;;;;19.50;85.50;;;;;;5010616;28;19913;-70
2023/04/17 08:50:07;;;;;;;;;;;19.60;85.40;;;;;;5028460;28;19919;-71
2023/04/17 08:52:34;;;;;;;;;;;19.70;85.40;;;;;;5028659;28;20353;-68
2023/04/17 08:55:00;;;;;;;;;;;19.70;85.20;;;;;;5028265;28;19909;-69
2023/04/17 08:57:25;;;;;;;;;;;19.80;85.40;;;;;;5032062;28;20358;-69
2023/04/17 08:59:51;;;;;;;;;;;19.80;85.20;;;;;;5037496;28;19920;-71
2023/04/17 09:02:17;;;;;;;;;;;19.90;85.20;;;;;;5039023;28;19920;-71
2023/04/17 09:04:43;;;;;;;;;;;20.10;85.50;;;;;;5002757;28;19952;-71
2023/04/17 09:07:10;;;;;;;;;;;20.30;85.40;;;;;;5039398;28;20377;-71
2023/04/17 09:09:46;;;;;;;;;;;20.50;85.30;;;;;;5036905;28;20470;-71
2023/04/17 09:12:12;;;;;;;;;;;20.80;85.70;;;;;;5038131;28;19994;-71
2023/04/17 09:14:37;;;;;;;;;;;21.10;85.50;;;;;;5018415;28;19976;-71
2023/04/17 09:17:03;;;;;;;;;;;21.30;85.40;;;;;;5038572;28;19909;-71
2023/04/17 09:19:28;;;;;;;;;;;21.60;85.50;;;;;;5037409;28;19928;-71
2023/04/17 09:21:54;;;;;;;;;;;21.80;85.40;;;;;;5018908;28;19912;-71
2023/04/17 09:24:33;;;;;;;;;;;21.90;85.40;;;;;;5038425;28;20273;-71
2023/04/17 09:27:25;;;;;;;;;;;22.00;85.30;;;;;;5038556;28;20003;-71
2023/04/17 09:30:04;;;;;;;;;;;22.10;85.50;;;;;;5033240;28;20043;-71
2023/04/17 09:32:31;;;;;;;;;;;22.30;85.50;;;;;;5038922;28;20325;-71
2023/04/17 09:34:58;;;;;;;;;;;22.50;85.60;;;;;;5036794;28;20003;-71
2023/04/17 09:37:24;;;;;;;;;;;22.60;85.50;;;;;;5020168;28;19916;-71
2023/04/17 09:39:53;;;;;;;;;;;22.70;85.50;;;;;;5018882;28;19913;-71
2023/04/17 09:42:19;;;;;;;;;;;22.70;85.60;;;;;;5036594;28;19920;-71
2023/04/17 09:44:46;;;;;;;;;;;22.60;85.10;;;;;;5019855;28;19917;-71
2023/04/17 09:47:11;;;;;;;;;;;22.40;84.90;;;;;;5035018;28;20346;-71
2023/04/17 09:49:37;;;;;;;;;;;22.30;85.30;;;;;;5037848;28;19932;-71
2023/04/17 09:52:04;;;;;;;;;;;22.50;85.60;;;;;;5031308;28;19913;-71
2023/04/17 09:54:31;;;;;;;;;;;22.60;85.80;;;;;;5032819;28;20000;-71
2023/04/17 09:56:57;;;;;;;;;;;22.50;85.90;;;;;;5004847;28;19975;-71
2023/04/17 09:59:23;;;;;;;;;;;22.50;86.30;;;;;;5036847;28;19909;-71
2023/04/17 10:01:49;;;;;;;;;;;22.70;86.50;;;;;;5038425;28;19916;-71
2023/04/17 10:04:15;;;;;;;;;;;22.90;86.40;;;;;;5039486;28;19909;-70
2023/04/17 10:06:41;;;;;;;;;;;22.90;86.60;;;;;;5048002;28;19913;-72
2023/04/17 10:09:07;;;;;;;;;;;23.10;87.00;;;;;;5047867;28;19919;-71
2023/04/17 10:11:37;;;;;;;;;;;23.30;86.70;;;;;;5029605;28;20024;-70
2023/04/17 10:14:21;;;;;;;;;;;23.30;86.50;;;;;;5047679;28;19932;-71
2023/04/17 10:16:47;;;;;;;;;;;23.40;86.90;;;;;;5047813;28;19924;-71
2023/04/17 10:19:22;;;;;;;;;;;23.50;87.10;;;;;;5047736;28;19916;-70
2023/04/17 10:22:08;;;;;;;;;;;23.50;86.60;;;;;;5047325;28;20000;-70
2023/04/17 10:24:34;;;;;;;;;;;23.60;86.70;;;;;;5047709;28;19937;-70
2023/04/17 10:27:00;;;;;;;;;;;23.60;86.40;;;;;;5047731;28;19951;-70
2023/04/17 10:29:44;;;;;;;;;;;23.60;86.00;;;;;;5047341;28;19944;-71
2023/04/17 10:32:09;;;;;;;;;;;23.40;85.40;;;;;;5047204;28;20393;-71
2023/04/17 10:34:36;;;;;;;;;;;23.20;85.60;;;;;;5047053;28;19909;-73
2023/04/17 10:37:02;;;;;;;;;;;23.10;85.80;;;;;;5047500;28;19931;-71
2023/04/17 10:39:47;;;;;;;;;;;22.80;86.10;;;;;;5047777;28;19913;-72
2023/04/17 10:42:16;;;;;;;;;;;22.70;86.50;;;;;;5047682;28;19909;-72
2023/04/17 10:44:43;;;;;;;;;;;22.70;86.80;;;;;;5047728;28;19909;-71
2023/04/17 10:47:10;;;;;;;;;;;22.60;87.00;;;;;;5029278;28;19913;-71
2023/04/17 10:50:05;;;;;;;;;;;22.60;87.60;;;;;;5047846;28;20009;-72
2023/04/17 10:52:30;;;;;;;;;;;23.00;88.10;;;;;;5038443;28;19909;-72
2023/04/17 10:55:05;;;;;;;;;;;23.40;87.60;;;;;;5029751;28;20015;-72
2023/04/17 10:57:46;;;;;;;;;;;24.20;88.20;;;;;;5030218;28;19939;-74
2023/04/17 11:00:12;;;;;;;;;;;25.10;87.90;;;;;;5051119;28;20269;-73
2023/04/17 11:02:38;;;;;;;;;;;25.40;86.70;;;;;;5050611;28;19917;-71
2023/04/17 11:05:06;;;;;;;;;;;25.40;86.00;;;;;;5050518;28;19913;-72
2023/04/17 11:07:34;;;;;;;;;;;25.00;85.80;;;;;;5050253;28;19920;-72
2023/04/17 11:10:04;;;;;;;;;;;24.60;86.10;;;;;;5049888;28;19967;-74
2023/04/17 11:12:30;;;;;;;;;;;24.30;86.90;;;;;;5051667;28;19918;-74
2023/04/17 11:15:08;;;;;;;;;;;24.40;87.50;;;;;;5050922;28;19917;-71
2023/04/17 11:17:33;;;;;;;;;;;24.80;87.50;;;;;;5050678;28;19920;-74
2023/04/17 11:19:59;;;;;;;;;;;25.10;87.10;;;;;;5032691;28;19913;-71
2023/04/17 11:22:26;;;;;;;;;;;25.10;86.80;;;;;;5050686;28;19999;-70
2023/04/17 11:24:51;;;;;;;;;;;25.00;86.60;;;;;;5032732;28;19920;-70
2023/04/17 11:27:17;;;;;;;;;;;25.00;86.60;;;;;;5050609;28;19916;-70
2023/04/17 11:29:43;;;;;;;;;;;24.80;86.10;;;;;;5032005;28;19971;-71
2023/04/17 11:32:10;;;;;;;;;;;24.50;86.00;;;;;;5050157;28;19982;-74
2023/04/17 11:34:35;;;;;;;;;;;24.30;86.10;;;;;;5050720;28;19919;-72
2023/04/17 11:37:02;;;;;;;;;;;24.10;86.00;;;;;;5050510;28;19924;-74
2023/04/17 11:39:29;;;;;;;;;;;23.90;86.00;;;;;;5032671;28;19921;-72
2023/04/17 11:41:57;;;;;;;;;;;23.70;85.90;;;;;;5050392;28;19910;-71
2023/04/17 11:44:23;;;;;;;;;;;23.40;86.00;;;;;;5050056;28;19965;-71
2023/04/17 11:46:52;;;;;;;;;;;23.20;86.50;;;;;;5050441;28;20360;-71
2023/04/17 11:49:25;;;;;;;;;;;23.10;86.50;;;;;;5050098;28;19909;-70
2023/04/17 11:51:51;;;;;;;;;;;23.00;86.50;;;;;;5049984;28;19912;-71
2023/04/17 11:54:26;;;;;;;;;;;22.90;86.60;;;;;;5031773;28;19917;-70
2023/04/17 11:57:01;;;;;;;;;;;22.90;86.70;;;;;;5050126;28;19909;-70
2023/04/17 11:59:30;;;;;;;;;;;22.70;86.60;;;;;;5050086;28;19912;-71
2023/04/17 12:01:58;;;;;;;;;;;22.50;86.70;;;;;;5032036;28;19913;-71
2023/04/17 12:04:24;;;;;;;;;;;22.40;86.90;;;;;;5049838;28;19967;-73
2023/04/17 12:06:50;;;;;;;;;;;22.30;87.20;;;;;;5049563;28;19994;-70
2023/04/17 12:09:20;;;;;;;;;;;22.30;87.30;;;;;;5048948;28;19983;-71
2023/04/17 12:11:45;;;;;;;;;;;22.40;87.40;;;;;;5032051;28;20082;-70
2023/04/17 12:14:11;;;;;;;;;;;22.50;87.40;;;;;;5049699;28;20396;-71
2023/04/17 12:16:37;;;;;;;;;;;22.70;87.40;;;;;;5049612;28;20019;-73
2023/04/17 12:19:02;;;;;;;;;;;22.90;87.20;;;;;;5049336;28;19980;-71
2023/04/17 12:21:28;;;;;;;;;;;23.20;87.00;;;;;;5031389;28;19913;-71
2023/04/17 12:23:53;;;;;;;;;;;23.40;86.90;;;;;;5031719;28;19917;-71
2023/04/17 12:26:19;;;;;;;;;;;23.60;87.00;;;;;;5049168;28;20433;-72
2023/04/17 12:28:44;;;;;;;;;;;24.00;87.00;;;;;;5045863;28;19921;-71
2023/04/17 12:31:10;;;;;;;;;;;24.40;86.70;;;;;;5048805;28;20004;-73
2023/04/17 12:33:36;;;;;;;;;;;24.40;86.30;;;;;;5031230;28;19929;-71
2023/04/17 12:36:02;;;;;;;;;;;24.30;86.50;;;;;;5049125;28;20326;-72
2023/04/17 12:38:28;;;;;;;;;;;24.20;86.90;;;;;;5048644;28;20004;-75
2023/04/17 12:40:54;;;;;;;;;;;24.20;87.20;;;;;;5050518;28;19974;-75
2023/04/17 12:43:19;;;;;;;;;;;24.30;87.10;;;;;;5049306;28;20365;-73
2023/04/17 12:45:45;;;;;;;;;;;24.50;87.30;;;;;;5049657;28;19913;-74
2023/04/17 12:48:11;;;;;;;;;;;25.00;88.00;;;;;;5049038;28;20304;-75
2023/04/17 12:50:41;;;;;;;;;;;25.80;88.40;;;;;;5049218;28;19917;-73
2023/04/17 12:53:11;;;;;;;;;;;26.60;88.00;;;;;;5049163;28;19920;-76
2023/04/17 12:55:37;;;;;;;;;;;26.40;86.90;;;;;;5031212;28;19916;-76
2023/04/17 12:58:12;;;;;;;;;;;25.90;86.90;;;;;;5049178;28;20007;-74
2023/04/17 13:00:38;;;;;;;;;;;25.30;87.30;;;;;;5049219;28;20380;-75
2023/04/17 13:03:04;;;;;;;;;;;25.10;87.80;;;;;;5049004;28;19955;-74
2023/04/17 13:05:30;;;;;;;;;;;25.00;87.70;;;;;;5030692;28;20314;-73
2023/04/17 13:07:56;;;;;;;;;;;25.00;87.30;;;;;;5048441;28;20003;-67
2023/04/17 13:10:21;;;;;;;;;;;24.60;87.10;;;;;;5030649;28;19920;-74
2023/04/17 13:12:47;;;;;;;;;;;24.20;87.40;;;;;;5029987;28;20313;-73
2023/04/17 13:15:13;;;;;;;;;;;24.00;87.90;;;;;;5048127;28;19908;-72
2023/04/17 13:17:39;;;;;;;;;;;23.90;88.20;;;;;;5048485;28;20357;-75
2023/04/17 13:20:05;;;;;;;;;;;23.90;88.10;;;;;;5048259;28;19920;-73
2023/04/17 13:22:31;;;;;;;;;;;23.80;87.90;;;;;;5048475;28;19913;-74
2023/04/17 13:24:57;;;;;;;;;;;23.60;88.00;;;;;;5048444;28;19913;-72
2023/04/17 13:27:24;;;;;;;;;;;24.00;89.00;;;;;;5048330;28;19920;-74
2023/04/17 13:29:50;;;;;;;;;;;24.80;89.60;;;;;;5048108;28;19956;-74
2023/04/17 13:32:15;;;;;;;;;;;25.70;89.40;;;;;;5030518;28;20518;-74
2023/04/17 13:34:41;;;;;;;;;;;26.20;88.50;;;;;;5030476;28;19982;-74
2023/04/17 13:37:07;;;;;;;;;;;26.40;87.70;;;;;;5048095;28;20486;-74
2023/04/17 13:39:32;;;;;;;;;;;26.40;86.90;;;;;;5048874;28;19920;-73
2023/04/17 13:41:58;;;;;;;;;;;26.20;86.10;;;;;;5047925;28;19925;-74
2023/04/17 13:44:24;;;;;;;;;;;25.90;86.00;;;;;;5047943;28;19909;-73
2023/04/17 13:46:49;;;;;;;;;;;25.90;86.60;;;;;;5036614;28;19943;-73
2023/04/17 13:49:15;;;;;;;;;;;25.90;86.50;;;;;;5038459;28;19966;-73
2023/04/17 13:51:41;;;;;;;;;;;25.80;86.00;;;;;;5033127;28;19944;-73
2023/04/17 13:54:07;;;;;;;;;;;25.70;86.00;;;;;;5028353;28;19913;-73
2023/04/17 13:56:32;;;;;;;;;;;25.40;85.60;;;;;;5032666;28;20011;-73
2023/04/17 13:58:58;;;;;;;;;;;25.10;85.20;;;;;;5039020;28;20001;-72
2023/04/17 14:01:24;;;;;;;;;;;24.80;85.10;;;;;;5044546;28;20563;-73
2023/04/17 14:03:50;;;;;;;;;;;24.40;85.10;;;;;;5048054;28;19985;-70
2023/04/17 14:06:16;;;;;;;;;;;24.10;85.40;;;;;;5048031;28;19962;-74
2023/04/17 14:08:43;;;;;;;;;;;23.90;85.50;;;;;;5048023;28;19924;-73
2023/04/17 14:11:09;;;;;;;;;;;23.90;86.20;;;;;;5047481;28;19962;-72
2023/04/17 14:13:35;;;;;;;;;;;23.80;85.70;;;;;;5029919;28;19913;-73